sensor_id;sensor_type;location;lat;lon;timestamp;temperature;humidity
22917;DHT22;11624;53.250;7.456;2022-12-29T00:00:59;15.01;64.67
22917;DHT22;11624;53.250;7.456;2022-12-29T00:03:29;15.06;64.32
22917;DHT22;11624;53.250;7.456;2022-12-29T00:05:58;15.06;64.47
22917;DHT22;11624;53.250;7.456;2022-12-29T00:08:27;15.02;64.81
22917;DHT22;11624;53.250;7.456;2022-12-29T00:11:06;14.98;64.85
22917;DHT22;11624;53.250;7.456;2022-12-29T00:13:35;15.15;64.39
22917;DHT22;11624;53.250;7.456;2022-12-29T00:16:21;15.09;64.41
22917;DHT22;11624;53.250;7.456;2022-12-29T00:18:50;15.14;64.34
22917;DHT22;11624;53.250;7.456;2022-12-29T00:21:20;15.19;64.38
22917;DHT22;11624;53.250;7.456;2022-12-29T00:24:08;15.04;64.92
22917;DHT22;11624;53.250;7.456;2022-12-29T00:26:57;15.18;64.48
22917;DHT22;11624;53.250;7.456;2022-12-29T00:29:43;15.29;64.18
22917;DHT22;11624;53.250;7.456;2022-12-29T00:32:29;15.27;64.47
22917;DHT22;11624;53.250;7.456;2022-12-29T00:35:22;15.22;64.59
22917;DHT22;11624;53.250;7.456;2022-12-29T00:37:50;15.23;64.86
22917;DHT22;11624;53.250;7.456;2022-12-29T00:40:37;15.12;65.16
22917;DHT22;11624;53.250;7.456;2022-12-29T00:43:22;14.92;66.06
22917;DHT22;11624;53.250;7.456;2022-12-29T00:46:07;14.99;65.73
22917;DHT22;11624;53.250;7.456;2022-12-29T00:48:45;15.01;65.93
22917;DHT22;11624;53.250;7.456;2022-12-29T00:51:33;15.12;65.51
22917;DHT22;11624;53.250;7.456;2022-12-29T00:54:01;15.06;65.75
22917;DHT22;11624;53.250;7.456;2022-12-29T00:56:32;14.79;67.01
22917;DHT22;11624;53.250;7.456;2022-12-29T00:59:01;14.85;66.83
22917;DHT22;11624;53.250;7.456;2022-12-29T01:01:29;14.86;66.99
22917;DHT22;11624;53.250;7.456;2022-12-29T01:03:58;14.80;67.23
22917;DHT22;11624;53.250;7.456;2022-12-29T01:06:30;14.83;67.12
22917;DHT22;11624;53.250;7.456;2022-12-29T01:09:00;14.89;66.98
22917;DHT22;11624;53.250;7.456;2022-12-29T01:11:46;15.03;66.65
22917;DHT22;11624;53.250;7.456;2022-12-29T01:14:15;14.96;66.65
22917;DHT22;11624;53.250;7.456;2022-12-29T01:16:43;14.96;66.75
22917;DHT22;11624;53.250;7.456;2022-12-29T01:19:13;15.11;66.43
22917;DHT22;11624;53.250;7.456;2022-12-29T01:21:41;15.03;66.09
22917;DHT22;11624;53.250;7.456;2022-12-29T01:24:10;15.16;65.90
22917;DHT22;11624;53.250;7.456;2022-12-29T01:26:38;14.96;66.49
22917;DHT22;11624;53.250;7.456;2022-12-29T01:29:07;15.15;66.01
22917;DHT22;11624;53.250;7.456;2022-12-29T01:31:35;15.04;66.04
22917;DHT22;11624;53.250;7.456;2022-12-29T01:34:03;15.19;65.67
22917;DHT22;11624;53.250;7.456;2022-12-29T01:36:32;15.29;65.47
22917;DHT22;11624;53.250;7.456;2022-12-29T01:39:00;14.93;66.20
22917;DHT22;11624;53.250;7.456;2022-12-29T01:41:30;15.11;65.67
22917;DHT22;11624;53.250;7.456;2022-12-29T01:43:59;15.16;65.32
22917;DHT22;11624;53.250;7.456;2022-12-29T01:46:30;15.33;65.04
22917;DHT22;11624;53.250;7.456;2022-12-29T01:49:05;15.28;64.90
22917;DHT22;11624;53.250;7.456;2022-12-29T01:51:39;15.33;64.66
22917;DHT22;11624;53.250;7.456;2022-12-29T01:54:11;15.31;64.95
22917;DHT22;11624;53.250;7.456;2022-12-29T01:56:42;15.43;64.43
22917;DHT22;11624;53.250;7.456;2022-12-29T01:59:14;15.24;64.70
22917;DHT22;11624;53.250;7.456;2022-12-29T02:01:44;15.51;64.11
22917;DHT22;11624;53.250;7.456;2022-12-29T02:04:13;15.41;64.53
22917;DHT22;11624;53.250;7.456;2022-12-29T02:06:45;15.39;64.08
22917;DHT22;11624;53.250;7.456;2022-12-29T02:09:14;15.48;63.98
22917;DHT22;11624;53.250;7.456;2022-12-29T02:11:46;15.51;63.40
22917;DHT22;11624;53.250;7.456;2022-12-29T02:14:17;15.32;64.02
22917;DHT22;11624;53.250;7.456;2022-12-29T02:16:57;15.61;62.95
22917;DHT22;11624;53.250;7.456;2022-12-29T02:22:35;15.56;63.08
22917;DHT22;11624;53.250;7.456;2022-12-29T02:25:30;15.67;62.57
22917;DHT22;11624;53.250;7.456;2022-12-29T02:28:27;15.62;62.72
22917;DHT22;11624;53.250;7.456;2022-12-29T02:31:05;15.57;62.77
22917;DHT22;11624;53.250;7.456;2022-12-29T02:33:48;15.53;62.96
22917;DHT22;11624;53.250;7.456;2022-12-29T02:36:24;15.56;63.03
22917;DHT22;11624;53.250;7.456;2022-12-29T02:39:03;15.62;62.86
22917;DHT22;11624;53.250;7.456;2022-12-29T02:41:37;15.63;62.89
22917;DHT22;11624;53.250;7.456;2022-12-29T02:44:11;15.66;62.66
22917;DHT22;11624;53.250;7.456;2022-12-29T02:46:47;15.57;62.85
22917;DHT22;11624;53.250;7.456;2022-12-29T02:49:20;15.60;62.79
22917;DHT22;11624;53.250;7.456;2022-12-29T02:51:55;15.77;62.16
22917;DHT22;11624;53.250;7.456;2022-12-29T02:54:27;15.74;61.83
22917;DHT22;11624;53.250;7.456;2022-12-29T02:57:13;15.88;61.83
22917;DHT22;11624;53.250;7.456;2022-12-29T02:59:45;15.74;61.90
22917;DHT22;11624;53.250;7.456;2022-12-29T03:02:27;15.63;61.99
22917;DHT22;11624;53.250;7.456;2022-12-29T03:05:35;15.81;61.24
22917;DHT22;11624;53.250;7.456;2022-12-29T03:08:17;15.88;61.16
22917;DHT22;11624;53.250;7.456;2022-12-29T03:10:51;15.70;61.54
22917;DHT22;11624;53.250;7.456;2022-12-29T03:13:28;16.02;60.99
22917;DHT22;11624;53.250;7.456;2022-12-29T03:16:21;16.01;60.89
22917;DHT22;11624;53.250;7.456;2022-12-29T03:19:02;15.90;61.38
22917;DHT22;11624;53.250;7.456;2022-12-29T03:21:37;15.78;61.99
22917;DHT22;11624;53.250;7.456;2022-12-29T03:24:27;15.67;62.63
22917;DHT22;11624;53.250;7.456;2022-12-29T03:26:58;15.75;62.56
22917;DHT22;11624;53.250;7.456;2022-12-29T03:29:39;15.61;63.24
22917;DHT22;11624;53.250;7.456;2022-12-29T03:32:09;15.60;63.20
22917;DHT22;11624;53.250;7.456;2022-12-29T03:34:41;15.52;63.38
22917;DHT22;11624;53.250;7.456;2022-12-29T03:37:12;15.84;62.42
22917;DHT22;11624;53.250;7.456;2022-12-29T03:39:44;15.77;62.49
22917;DHT22;11624;53.250;7.456;2022-12-29T03:42:14;15.80;62.34
22917;DHT22;11624;53.250;7.456;2022-12-29T03:44:45;15.86;62.14
22917;DHT22;11624;53.250;7.456;2022-12-29T03:47:14;15.73;62.68
22917;DHT22;11624;53.250;7.456;2022-12-29T03:49:46;15.52;63.18
22917;DHT22;11624;53.250;7.456;2022-12-29T03:52:15;15.66;63.00
22917;DHT22;11624;53.250;7.456;2022-12-29T03:54:47;15.61;62.77
22917;DHT22;11624;53.250;7.456;2022-12-29T03:57:15;15.65;63.07
22917;DHT22;11624;53.250;7.456;2022-12-29T03:59:52;15.74;62.72
22917;DHT22;11624;53.250;7.456;2022-12-29T04:02:20;15.56;63.04
22917;DHT22;11624;53.250;7.456;2022-12-29T04:04:50;15.55;63.08
22917;DHT22;11624;53.250;7.456;2022-12-29T04:07:18;15.59;62.96
22917;DHT22;11624;53.250;7.456;2022-12-29T04:09:47;15.40;63.25
22917;DHT22;11624;53.250;7.456;2022-12-29T04:12:20;15.58;62.84
22917;DHT22;11624;53.250;7.456;2022-12-29T04:14:48;15.56;62.77
22917;DHT22;11624;53.250;7.456;2022-12-29T04:17:17;15.67;62.33
22917;DHT22;11624;53.250;7.456;2022-12-29T04:19:49;15.68;62.38
22917;DHT22;11624;53.250;7.456;2022-12-29T04:22:18;15.61;62.55
22917;DHT22;11624;53.250;7.456;2022-12-29T04:24:45;15.71;62.31
22917;DHT22;11624;53.250;7.456;2022-12-29T04:27:13;15.54;62.52
22917;DHT22;11624;53.250;7.456;2022-12-29T04:30:00;15.60;62.47
22917;DHT22;11624;53.250;7.456;2022-12-29T04:32:39;15.56;62.43
22917;DHT22;11624;53.250;7.456;2022-12-29T04:35:09;15.59;62.31
22917;DHT22;11624;53.250;7.456;2022-12-29T04:37:37;15.55;62.15
22917;DHT22;11624;53.250;7.456;2022-12-29T04:40:07;15.72;61.75
22917;DHT22;11624;53.250;7.456;2022-12-29T04:42:35;15.77;61.44
22917;DHT22;11624;53.250;7.456;2022-12-29T04:45:04;15.65;61.51
22917;DHT22;11624;53.250;7.456;2022-12-29T04:47:36;15.71;61.35
22917;DHT22;11624;53.250;7.456;2022-12-29T04:50:24;15.66;61.08
22917;DHT22;11624;53.250;7.456;2022-12-29T04:53:14;15.66;60.66
22917;DHT22;11624;53.250;7.456;2022-12-29T04:55:43;15.71;60.42
22917;DHT22;11624;53.250;7.456;2022-12-29T04:58:11;15.55;59.63
22917;DHT22;11624;53.250;7.456;2022-12-29T05:00:48;15.60;58.77
22917;DHT22;11624;53.250;7.456;2022-12-29T05:03:16;15.61;58.54
22917;DHT22;11624;53.250;7.456;2022-12-29T05:05:46;15.60;58.33
22917;DHT22;11624;53.250;7.456;2022-12-29T05:08:14;15.51;58.43
22917;DHT22;11624;53.250;7.456;2022-12-29T05:10:44;15.54;58.09
22917;DHT22;11624;53.250;7.456;2022-12-29T05:13:14;15.51;58.08
22917;DHT22;11624;53.250;7.456;2022-12-29T05:15:47;15.43;57.54
22917;DHT22;11624;53.250;7.456;2022-12-29T05:18:17;15.48;57.59
22917;DHT22;11624;53.250;7.456;2022-12-29T05:20:47;15.46;57.29
22917;DHT22;11624;53.250;7.456;2022-12-29T05:23:16;15.42;57.60
22917;DHT22;11624;53.250;7.456;2022-12-29T05:25:49;15.54;57.35
22917;DHT22;11624;53.250;7.456;2022-12-29T05:28:22;15.46;57.59
22917;DHT22;11624;53.250;7.456;2022-12-29T05:30:57;15.34;57.98
22917;DHT22;11624;53.250;7.456;2022-12-29T05:33:26;15.23;58.40
22917;DHT22;11624;53.250;7.456;2022-12-29T05:35:56;15.23;58.62
22917;DHT22;11624;53.250;7.456;2022-12-29T05:38:24;15.27;58.70
22917;DHT22;11624;53.250;7.456;2022-12-29T05:40:52;15.21;58.88
22917;DHT22;11624;53.250;7.456;2022-12-29T05:43:50;15.29;58.77
22917;DHT22;11624;53.250;7.456;2022-12-29T05:46:27;15.19;58.83
22917;DHT22;11624;53.250;7.456;2022-12-29T05:49:07;15.15;59.51
22917;DHT22;11624;53.250;7.456;2022-12-29T05:52:12;15.21;58.96
22917;DHT22;11624;53.250;7.456;2022-12-29T05:54:40;15.22;58.79
22917;DHT22;11624;53.250;7.456;2022-12-29T05:57:12;15.40;58.32
22917;DHT22;11624;53.250;7.456;2022-12-29T05:59:43;15.33;58.13
22917;DHT22;11624;53.250;7.456;2022-12-29T06:02:11;15.22;58.32
22917;DHT22;11624;53.250;7.456;2022-12-29T06:04:40;15.29;58.26
22917;DHT22;11624;53.250;7.456;2022-12-29T06:07:09;15.27;58.58
22917;DHT22;11624;53.250;7.456;2022-12-29T06:09:43;15.30;57.91
22917;DHT22;11624;53.250;7.456;2022-12-29T06:12:11;15.31;57.83
22917;DHT22;11624;53.250;7.456;2022-12-29T06:14:42;15.27;58.38
22917;DHT22;11624;53.250;7.456;2022-12-29T06:17:10;15.22;58.38
22917;DHT22;11624;53.250;7.456;2022-12-29T06:19:38;15.02;58.98
22917;DHT22;11624;53.250;7.456;2022-12-29T06:22:06;14.87;59.42
22917;DHT22;11624;53.250;7.456;2022-12-29T06:24:35;15.08;58.87
22917;DHT22;11624;53.250;7.456;2022-12-29T06:27:04;14.91;59.34
22917;DHT22;11624;53.250;7.456;2022-12-29T06:29:33;15.02;58.93
22917;DHT22;11624;53.250;7.456;2022-12-29T06:32:04;15.13;58.49
22917;DHT22;11624;53.250;7.456;2022-12-29T06:34:32;15.16;58.13
22917;DHT22;11624;53.250;7.456;2022-12-29T06:37:00;15.07;58.87
22917;DHT22;11624;53.250;7.456;2022-12-29T06:39:29;15.13;58.77
22917;DHT22;11624;53.250;7.456;2022-12-29T06:42:05;15.16;58.51
22917;DHT22;11624;53.250;7.456;2022-12-29T06:44:36;15.09;58.80
22917;DHT22;11624;53.250;7.456;2022-12-29T06:47:09;15.34;57.93
22917;DHT22;11624;53.250;7.456;2022-12-29T06:49:37;15.31;57.95
22917;DHT22;11624;53.250;7.456;2022-12-29T06:52:05;15.36;57.70
22917;DHT22;11624;53.250;7.456;2022-12-29T06:54:38;15.44;57.10
22917;DHT22;11624;53.250;7.456;2022-12-29T06:57:08;15.36;56.76
22917;DHT22;11624;53.250;7.456;2022-12-29T06:59:36;15.41;56.93
22917;DHT22;11624;53.250;7.456;2022-12-29T07:02:04;15.44;56.58
22917;DHT22;11624;53.250;7.456;2022-12-29T07:04:32;15.38;56.77
22917;DHT22;11624;53.250;7.456;2022-12-29T07:07:00;15.42;55.84
22917;DHT22;11624;53.250;7.456;2022-12-29T07:09:28;15.58;55.28
22917;DHT22;11624;53.250;7.456;2022-12-29T07:11:57;15.55;55.04
22917;DHT22;11624;53.250;7.456;2022-12-29T07:14:26;15.48;54.66
22917;DHT22;11624;53.250;7.456;2022-12-29T07:16:54;15.43;54.96
22917;DHT22;11624;53.250;7.456;2022-12-29T07:19:22;15.47;54.98
22917;DHT22;11624;53.250;7.456;2022-12-29T07:21:50;15.34;55.30
22917;DHT22;11624;53.250;7.456;2022-12-29T07:24:18;15.31;55.17
22917;DHT22;11624;53.250;7.456;2022-12-29T07:26:47;15.19;54.96
22917;DHT22;11624;53.250;7.456;2022-12-29T07:29:15;15.09;54.71
22917;DHT22;11624;53.250;7.456;2022-12-29T07:31:44;14.94;55.06
22917;DHT22;11624;53.250;7.456;2022-12-29T07:34:13;14.92;54.93
22917;DHT22;11624;53.250;7.456;2022-12-29T07:36:41;14.85;55.07
22917;DHT22;11624;53.250;7.456;2022-12-29T07:39:09;14.85;54.73
22917;DHT22;11624;53.250;7.456;2022-12-29T07:41:38;14.80;54.46
22917;DHT22;11624;53.250;7.456;2022-12-29T07:44:10;14.88;54.50
22917;DHT22;11624;53.250;7.456;2022-12-29T07:47:00;14.80;53.75
22917;DHT22;11624;53.250;7.456;2022-12-29T07:49:28;14.86;54.58
22917;DHT22;11624;53.250;7.456;2022-12-29T07:51:56;15.00;54.60
22917;DHT22;11624;53.250;7.456;2022-12-29T07:54:24;14.78;53.93
22917;DHT22;11624;53.250;7.456;2022-12-29T07:56:53;14.94;54.90
22917;DHT22;11624;53.250;7.456;2022-12-29T07:59:21;14.87;54.13
22917;DHT22;11624;53.250;7.456;2022-12-29T08:01:49;15.02;54.75
22917;DHT22;11624;53.250;7.456;2022-12-29T08:04:19;14.86;54.70
22917;DHT22;11624;53.250;7.456;2022-12-29T08:06:47;14.85;55.21
22917;DHT22;11624;53.250;7.456;2022-12-29T08:09:15;14.97;54.70
22917;DHT22;11624;53.250;7.456;2022-12-29T08:11:49;15.02;55.39
22917;DHT22;11624;53.250;7.456;2022-12-29T08:14:18;14.78;55.27
22917;DHT22;11624;53.250;7.456;2022-12-29T08:16:46;15.12;55.29
22917;DHT22;11624;53.250;7.456;2022-12-29T08:19:14;15.13;54.99
22917;DHT22;11624;53.250;7.456;2022-12-29T08:21:44;15.01;55.26
22917;DHT22;11624;53.250;7.456;2022-12-29T08:24:12;15.14;55.45
22917;DHT22;11624;53.250;7.456;2022-12-29T08:26:40;15.17;55.71
22917;DHT22;11624;53.250;7.456;2022-12-29T08:29:08;15.13;55.42
22917;DHT22;11624;53.250;7.456;2022-12-29T08:31:36;15.24;55.60
22917;DHT22;11624;53.250;7.456;2022-12-29T08:34:04;15.19;55.81
22917;DHT22;11624;53.250;7.456;2022-12-29T08:36:33;15.40;55.26
22917;DHT22;11624;53.250;7.456;2022-12-29T08:39:02;15.34;55.12
22917;DHT22;11624;53.250;7.456;2022-12-29T08:41:31;15.27;54.82
22917;DHT22;11624;53.250;7.456;2022-12-29T08:43:59;15.09;55.21
22917;DHT22;11624;53.250;7.456;2022-12-29T08:46:27;15.22;55.23
22917;DHT22;11624;53.250;7.456;2022-12-29T08:48:55;15.25;54.61
22917;DHT22;11624;53.250;7.456;2022-12-29T08:51:23;15.13;54.72
22917;DHT22;11624;53.250;7.456;2022-12-29T08:53:51;15.01;55.24
22917;DHT22;11624;53.250;7.456;2022-12-29T08:56:22;15.07;54.98
22917;DHT22;11624;53.250;7.456;2022-12-29T08:58:54;15.29;54.47
22917;DHT22;11624;53.250;7.456;2022-12-29T09:01:23;15.23;54.31
22917;DHT22;11624;53.250;7.456;2022-12-29T09:03:52;15.21;54.01
22917;DHT22;11624;53.250;7.456;2022-12-29T09:06:40;15.18;53.50
22917;DHT22;11624;53.250;7.456;2022-12-29T09:09:09;15.10;53.62
22917;DHT22;11624;53.250;7.456;2022-12-29T09:11:39;15.06;53.55
22917;DHT22;11624;53.250;7.456;2022-12-29T09:14:07;15.17;53.72
22917;DHT22;11624;53.250;7.456;2022-12-29T09:16:36;15.27;53.49
22917;DHT22;11624;53.250;7.456;2022-12-29T09:19:04;15.29;53.35
22917;DHT22;11624;53.250;7.456;2022-12-29T09:21:32;15.04;53.54
22917;DHT22;11624;53.250;7.456;2022-12-29T09:24:00;15.16;53.54
22917;DHT22;11624;53.250;7.456;2022-12-29T09:26:28;14.98;54.25
22917;DHT22;11624;53.250;7.456;2022-12-29T09:28:58;15.06;54.23
22917;DHT22;11624;53.250;7.456;2022-12-29T09:31:26;15.06;54.17
22917;DHT22;11624;53.250;7.456;2022-12-29T09:33:54;15.26;53.91
22917;DHT22;11624;53.250;7.456;2022-12-29T09:36:22;15.31;53.97
22917;DHT22;11624;53.250;7.456;2022-12-29T09:38:52;15.29;53.78
22917;DHT22;11624;53.250;7.456;2022-12-29T09:41:26;15.51;53.43
22917;DHT22;11624;53.250;7.456;2022-12-29T09:44:08;15.62;53.20
22917;DHT22;11624;53.250;7.456;2022-12-29T09:46:41;15.57;53.26
22917;DHT22;11624;53.250;7.456;2022-12-29T09:49:21;15.25;53.88
22917;DHT22;11624;53.250;7.456;2022-12-29T09:51:52;15.47;53.93
22917;DHT22;11624;53.250;7.456;2022-12-29T09:54:32;15.48;54.06
22917;DHT22;11624;53.250;7.456;2022-12-29T09:57:02;15.34;54.63
22917;DHT22;11624;53.250;7.456;2022-12-29T09:59:38;15.25;55.07
22917;DHT22;11624;53.250;7.456;2022-12-29T10:02:25;14.98;55.75
22917;DHT22;11624;53.250;7.456;2022-12-29T10:04:55;14.97;56.19
22917;DHT22;11624;53.250;7.456;2022-12-29T10:07:31;14.84;56.60
22917;DHT22;11624;53.250;7.456;2022-12-29T10:10:10;15.06;56.19
22917;DHT22;11624;53.250;7.456;2022-12-29T10:12:52;14.93;56.95
22917;DHT22;11624;53.250;7.456;2022-12-29T10:15:33;14.70;57.56
22917;DHT22;11624;53.250;7.456;2022-12-29T10:18:15;14.98;56.94
22917;DHT22;11624;53.250;7.456;2022-12-29T10:20:51;14.94;56.88
22917;DHT22;11624;53.250;7.456;2022-12-29T10:23:31;15.10;56.13
22917;DHT22;11624;53.250;7.456;2022-12-29T10:26:01;15.24;55.79
22917;DHT22;11624;53.250;7.456;2022-12-29T10:28:35;14.79;56.75
22917;DHT22;11624;53.250;7.456;2022-12-29T10:31:11;14.74;56.77
22917;DHT22;11624;53.250;7.456;2022-12-29T10:33:42;14.67;57.48
22917;DHT22;11624;53.250;7.456;2022-12-29T10:36:15;14.83;57.00
22917;DHT22;11624;53.250;7.456;2022-12-29T10:38:51;14.63;57.32
22917;DHT22;11624;53.250;7.456;2022-12-29T10:41:25;14.80;57.28
22917;DHT22;11624;53.250;7.456;2022-12-29T10:43:56;14.78;57.64
22917;DHT22;11624;53.250;7.456;2022-12-29T10:46:29;14.60;58.18
22917;DHT22;11624;53.250;7.456;2022-12-29T10:48:58;14.33;59.25
22917;DHT22;11624;53.250;7.456;2022-12-29T10:51:31;14.41;59.32
22917;DHT22;11624;53.250;7.456;2022-12-29T10:54:05;14.11;60.60
22917;DHT22;11624;53.250;7.456;2022-12-29T10:56:35;14.13;60.55
22917;DHT22;11624;53.250;7.456;2022-12-29T10:59:14;14.01;61.47
22917;DHT22;11624;53.250;7.456;2022-12-29T11:01:57;13.98;61.80
22917;DHT22;11624;53.250;7.456;2022-12-29T11:04:45;13.89;61.98
22917;DHT22;11624;53.250;7.456;2022-12-29T11:07:18;14.25;61.26
22917;DHT22;11624;53.250;7.456;2022-12-29T11:09:53;14.12;61.23
22917;DHT22;11624;53.250;7.456;2022-12-29T11:12:23;14.18;61.57
22917;DHT22;11624;53.250;7.456;2022-12-29T11:15:13;14.00;62.62
22917;DHT22;11624;53.250;7.456;2022-12-29T11:17:49;14.03;62.37
22917;DHT22;11624;53.250;7.456;2022-12-29T11:20:29;13.85;63.67
22917;DHT22;11624;53.250;7.456;2022-12-29T11:22:58;13.66;63.98
22917;DHT22;11624;53.250;7.456;2022-12-29T11:25:27;13.85;63.63
22917;DHT22;11624;53.250;7.456;2022-12-29T11:27:57;14.12;62.82
22917;DHT22;11624;53.250;7.456;2022-12-29T11:30:27;13.89;63.33
22917;DHT22;11624;53.250;7.456;2022-12-29T11:32:57;13.88;63.24
22917;DHT22;11624;53.250;7.456;2022-12-29T11:35:31;13.99;63.02
22917;DHT22;11624;53.250;7.456;2022-12-29T11:38:01;14.09;62.88
22917;DHT22;11624;53.250;7.456;2022-12-29T11:40:31;14.13;62.60
22917;DHT22;11624;53.250;7.456;2022-12-29T11:43:01;14.28;62.28
22917;DHT22;11624;53.250;7.456;2022-12-29T11:45:33;14.09;62.98
22917;DHT22;11624;53.250;7.456;2022-12-29T11:48:07;14.06;63.27
22917;DHT22;11624;53.250;7.456;2022-12-29T11:50:40;13.97;63.85
22917;DHT22;11624;53.250;7.456;2022-12-29T11:53:17;13.65;64.42
22917;DHT22;11624;53.250;7.456;2022-12-29T11:55:53;13.93;63.44
22917;DHT22;11624;53.250;7.456;2022-12-29T11:58:28;14.24;62.44
22917;DHT22;11624;53.250;7.456;2022-12-29T12:00:57;14.17;62.72
22917;DHT22;11624;53.250;7.456;2022-12-29T12:03:30;14.08;62.79
22917;DHT22;11624;53.250;7.456;2022-12-29T12:06:01;14.14;62.66
22917;DHT22;11624;53.250;7.456;2022-12-29T12:08:34;14.17;62.38
22917;DHT22;11624;53.250;7.456;2022-12-29T12:11:08;14.20;62.37
22917;DHT22;11624;53.250;7.456;2022-12-29T12:13:41;14.41;63.19
22917;DHT22;11624;53.250;7.456;2022-12-29T12:16:15;14.86;61.28
22917;DHT22;11624;53.250;7.456;2022-12-29T12:18:53;15.18;59.54
22917;DHT22;11624;53.250;7.456;2022-12-29T12:21:26;15.24;58.13
22917;DHT22;11624;53.250;7.456;2022-12-29T12:24:32;15.01;58.09
22917;DHT22;11624;53.250;7.456;2022-12-29T12:27:09;14.94;58.32
22917;DHT22;11624;53.250;7.456;2022-12-29T12:29:45;14.95;58.99
22917;DHT22;11624;53.250;7.456;2022-12-29T12:32:19;15.29;60.83
22917;DHT22;11624;53.250;7.456;2022-12-29T12:34:50;15.98;59.08
22917;DHT22;11624;53.250;7.456;2022-12-29T12:37:31;16.50;55.83
22917;DHT22;11624;53.250;7.456;2022-12-29T12:40:17;16.74;54.42
22917;DHT22;11624;53.250;7.456;2022-12-29T12:42:54;16.67;53.47
22917;DHT22;11624;53.250;7.456;2022-12-29T12:45:37;16.45;53.64
22917;DHT22;11624;53.250;7.456;2022-12-29T12:48:19;16.31;53.16
22917;DHT22;11624;53.250;7.456;2022-12-29T12:50:56;15.96;54.71
22917;DHT22;11624;53.250;7.456;2022-12-29T12:53:49;15.66;55.16
22917;DHT22;11624;53.250;7.456;2022-12-29T12:56:29;15.34;55.67
22917;DHT22;11624;53.250;7.456;2022-12-29T12:59:04;15.21;56.37
22917;DHT22;11624;53.250;7.456;2022-12-29T13:01:42;15.15;56.68
22917;DHT22;11624;53.250;7.456;2022-12-29T13:07:20;14.79;58.51
22917;DHT22;11624;53.250;7.456;2022-12-29T13:10:01;14.91;58.61
22917;DHT22;11624;53.250;7.456;2022-12-29T13:12:40;15.04;59.03
22917;DHT22;11624;53.250;7.456;2022-12-29T13:15:17;15.13;58.40
22917;DHT22;11624;53.250;7.456;2022-12-29T13:17:55;15.55;58.46
22917;DHT22;11624;53.250;7.456;2022-12-29T13:20:31;16.04;56.45
22917;DHT22;11624;53.250;7.456;2022-12-29T13:23:07;16.03;55.81
22917;DHT22;11624;53.250;7.456;2022-12-29T13:25:41;16.22;55.40
22917;DHT22;11624;53.250;7.456;2022-12-29T13:28:17;15.93;54.33
22917;DHT22;11624;53.250;7.456;2022-12-29T13:30:53;16.10;54.78
22917;DHT22;11624;53.250;7.456;2022-12-29T13:33:29;16.40;54.84
22917;DHT22;11624;53.250;7.456;2022-12-29T13:36:04;16.84;53.07
22917;DHT22;11624;53.250;7.456;2022-12-29T13:38:39;17.02;50.92
22917;DHT22;11624;53.250;7.456;2022-12-29T13:41:09;16.66;50.14
22917;DHT22;11624;53.250;7.456;2022-12-29T13:43:42;16.62;50.50
22917;DHT22;11624;53.250;7.456;2022-12-29T13:46:14;16.65;49.75
22917;DHT22;11624;53.250;7.456;2022-12-29T13:48:46;16.55;50.54
22917;DHT22;11624;53.250;7.456;2022-12-29T13:51:16;16.60;50.51
22917;DHT22;11624;53.250;7.456;2022-12-29T13:54:11;16.40;50.25
22917;DHT22;11624;53.250;7.456;2022-12-29T13:56:47;16.29;50.40
22917;DHT22;11624;53.250;7.456;2022-12-29T13:59:21;15.99;51.14
22917;DHT22;11624;53.250;7.456;2022-12-29T14:01:56;15.73;51.68
22917;DHT22;11624;53.250;7.456;2022-12-29T14:04:29;15.67;52.24
22917;DHT22;11624;53.250;7.456;2022-12-29T14:07:02;15.61;52.24
22917;DHT22;11624;53.250;7.456;2022-12-29T14:09:42;15.26;52.94
22917;DHT22;11624;53.250;7.456;2022-12-29T14:12:31;15.07;53.78
22917;DHT22;11624;53.250;7.456;2022-12-29T14:15:06;15.02;54.17
22917;DHT22;11624;53.250;7.456;2022-12-29T14:17:44;14.93;54.68
22917;DHT22;11624;53.250;7.456;2022-12-29T14:20:27;14.74;55.12
22917;DHT22;11624;53.250;7.456;2022-12-29T14:22:58;14.70;55.21
22917;DHT22;11624;53.250;7.456;2022-12-29T14:25:58;14.64;55.07
22917;DHT22;11624;53.250;7.456;2022-12-29T14:28:28;14.74;55.24
22917;DHT22;11624;53.250;7.456;2022-12-29T14:30:58;14.74;55.35
22917;DHT22;11624;53.250;7.456;2022-12-29T14:33:29;14.78;55.63
22917;DHT22;11624;53.250;7.456;2022-12-29T14:36:20;14.70;55.90
22917;DHT22;11624;53.250;7.456;2022-12-29T14:38:49;14.68;56.26
22917;DHT22;11624;53.250;7.456;2022-12-29T14:41:30;14.60;56.62
22917;DHT22;11624;53.250;7.456;2022-12-29T14:44:02;14.56;56.71
22917;DHT22;11624;53.250;7.456;2022-12-29T14:46:46;14.40;57.09
22917;DHT22;11624;53.250;7.456;2022-12-29T14:49:18;14.47;56.95
22917;DHT22;11624;53.250;7.456;2022-12-29T14:51:47;14.45;56.74
22917;DHT22;11624;53.250;7.456;2022-12-29T14:54:42;14.36;56.64
22917;DHT22;11624;53.250;7.456;2022-12-29T14:57:33;14.10;57.18
22917;DHT22;11624;53.250;7.456;2022-12-29T15:00:13;14.20;56.95
22917;DHT22;11624;53.250;7.456;2022-12-29T15:02:46;14.22;56.73
22917;DHT22;11624;53.250;7.456;2022-12-29T15:05:31;14.11;57.03
22917;DHT22;11624;53.250;7.456;2022-12-29T15:08:01;14.15;57.02
22917;DHT22;11624;53.250;7.456;2022-12-29T15:10:42;14.13;57.03
22917;DHT22;11624;53.250;7.456;2022-12-29T15:13:17;14.13;56.84
22917;DHT22;11624;53.250;7.456;2022-12-29T15:15:46;14.09;57.30
22917;DHT22;11624;53.250;7.456;2022-12-29T15:18:21;13.94;57.66
22917;DHT22;11624;53.250;7.456;2022-12-29T15:20:52;13.85;57.89
22917;DHT22;11624;53.250;7.456;2022-12-29T15:23:21;14.00;57.64
22917;DHT22;11624;53.250;7.456;2022-12-29T15:25:53;14.04;57.37
22917;DHT22;11624;53.250;7.456;2022-12-29T15:28:24;14.05;57.34
22917;DHT22;11624;53.250;7.456;2022-12-29T15:30:54;13.91;57.81
22917;DHT22;11624;53.250;7.456;2022-12-29T15:33:26;13.90;57.99
22917;DHT22;11624;53.250;7.456;2022-12-29T15:35:55;13.90;57.63
22917;DHT22;11624;53.250;7.456;2022-12-29T15:38:26;13.95;57.61
22917;DHT22;11624;53.250;7.456;2022-12-29T15:41:05;13.83;57.80
22917;DHT22;11624;53.250;7.456;2022-12-29T15:43:49;13.89;57.25
22917;DHT22;11624;53.250;7.456;2022-12-29T15:46:20;13.88;57.50
22917;DHT22;11624;53.250;7.456;2022-12-29T15:48:49;13.83;57.51
22917;DHT22;11624;53.250;7.456;2022-12-29T15:51:19;13.76;57.44
22917;DHT22;11624;53.250;7.456;2022-12-29T15:53:48;13.67;57.71
22917;DHT22;11624;53.250;7.456;2022-12-29T15:56:18;13.67;57.69
22917;DHT22;11624;53.250;7.456;2022-12-29T15:58:49;13.61;57.64
22917;DHT22;11624;53.250;7.456;2022-12-29T16:01:19;13.56;57.71
22917;DHT22;11624;53.250;7.456;2022-12-29T16:03:50;13.51;57.91
22917;DHT22;11624;53.250;7.456;2022-12-29T16:06:28;13.37;58.08
22917;DHT22;11624;53.250;7.456;2022-12-29T16:08:58;13.34;58.42
22917;DHT22;11624;53.250;7.456;2022-12-29T16:11:29;13.41;58.18
22917;DHT22;11624;53.250;7.456;2022-12-29T16:14:00;13.47;58.22
22917;DHT22;11624;53.250;7.456;2022-12-29T16:16:31;13.61;57.71